Cap Felix — ONFH — position and weather

sailwx.info

Track history (hours):
 
Tides and Currents Weather Stations Pressure Air Temp Water Temp Dewpoint Dewpoint Depression Visibility Wind Speed Wind Dir Waves Ship Positions

Cap Felix

Last reported at 2017-Dec-11 12:18 UTC. Time now 2018-Apr-24 22:26 UTC.
Position N 01°18' E 103°20'.
Warning: this ship's position is months out of date.

Length 275 m; draft 9.4 m.

Type: Tanker. MMSI: 205517000.

Date/timePositionNaut miles runAvg speedWind from/ knotsBaromVisibWave heightAir tempDewpointWater temp
2017-Dec-11 12:18N 01°18' E 103°20'3 9.0
2017-Dec-11 11:59N 01°17' E 103°22'4 8.8
2017-Dec-11 11:30N 01°15' E 103°26'510.2
2017-Dec-11 10:59N 01°13' E 103°31'510.8
2017-Dec-11 10:30N 01°11' E 103°36'510.6
2017-Dec-11 10:00N 01°10' E 103°41'5 9.6
2017-Dec-11 09:30N 01°09' E 103°46'611.3
2017-Dec-11 09:00N 01°12' E 103°51'611.4
2017-Dec-11 08:30N 01°14' E 103°56'510.6
2017-Dec-11 08:00N 01°16' E 104°01'4 6.2
2017-Dec-11 07:26N 01°18' E 104°03'0 0.4
2017-Dec-11 06:56N 01°18' E 104°03'0 0.0
2017-Dec-11 06:29N 01°18' E 104°03'0 0.0
2017-Dec-11 05:29N 01°18' E 104°03'0 0.0
2017-Dec-10 18:20N 01°18' E 104°03'0 0.1
2017-Dec-10 16:23N 01°18' E 104°04'0 0.0
2017-Dec-10 14:35N 01°18' E 104°04'0 0.0
2017-Dec-10 11:20N 01°18' E 104°03'1 4.3
2017-Dec-10 11:00N 01°18' E 104°05'4 7.9
2017-Dec-10 10:29N 01°17' E 104°09'5 6.0
2017-Dec-10 09:41N 01°18' E 104°14'  
Track history (hours):
 
Tides and Currents Weather Stations Pressure Air Temp Water Temp Dewpoint Dewpoint Depression Visibility Wind Speed Wind Dir Waves Ship Positions

Cap Felix

Last reported at 2017-Dec-11 12:18 UTC. Time now 2018-Apr-24 22:26 UTC.
Position N 01°18' E 103°20'.
Warning: this ship's position is months out of date.

Length 275 m; draft 9.4 m.

Type: Tanker. MMSI: 205517000.

Date/timePositionNaut miles runAvg speedWind from/ knotsBaromVisibWave heightAir tempDewpointWater temp
2017-Dec-11 12:18N 01°18' E 103°20'3 9.0
2017-Dec-11 11:59N 01°17' E 103°22'4 8.8
2017-Dec-11 11:30N 01°15' E 103°26'510.2
2017-Dec-11 10:59N 01°13' E 103°31'510.8
2017-Dec-11 10:30N 01°11' E 103°36'510.6
2017-Dec-11 10:00N 01°10' E 103°41'5 9.6
2017-Dec-11 09:30N 01°09' E 103°46'611.3
2017-Dec-11 09:00N 01°12' E 103°51'611.4
2017-Dec-11 08:30N 01°14' E 103°56'510.6
2017-Dec-11 08:00N 01°16' E 104°01'4 6.2
2017-Dec-11 07:26N 01°18' E 104°03'0 0.4
2017-Dec-11 06:56N 01°18' E 104°03'0 0.0
2017-Dec-11 06:29N 01°18' E 104°03'0 0.0
2017-Dec-11 05:29N 01°18' E 104°03'0 0.0
2017-Dec-10 18:20N 01°18' E 104°03'0 0.1
2017-Dec-10 16:23N 01°18' E 104°04'0 0.0
2017-Dec-10 14:35N 01°18' E 104°04'0 0.0
2017-Dec-10 11:20N 01°18' E 104°03'1 4.3
2017-Dec-10 11:00N 01°18' E 104°05'4 7.9
2017-Dec-10 10:29N 01°17' E 104°09'5 6.0
2017-Dec-10 09:41N 01°18' E 104°14'  

Dump ship's entire track history